createdAt,value
2022-09-15T00:01:11.427Z,3.53
2022-09-15T00:03:45.958Z,3.25
2022-09-15T00:06:13.708Z,3.30
2022-09-15T00:08:41.728Z,3.15
2022-09-15T00:11:18.612Z,3.17
2022-09-15T00:13:46.782Z,3.33
2022-09-15T00:16:15.682Z,3.63
2022-09-15T00:18:44.593Z,3.38
2022-09-15T00:21:15.253Z,3.30
2022-09-15T00:23:44.490Z,3.40
2022-09-15T00:26:15.176Z,3.50
2022-09-15T00:28:43.400Z,3.30
2022-09-15T00:31:14.587Z,3.40
2022-09-15T00:33:42.376Z,3.38
2022-09-15T00:36:11.676Z,3.40
2022-09-15T00:38:40.118Z,3.40
2022-09-15T00:41:10.833Z,3.63
2022-09-15T00:43:43.308Z,3.53
2022-09-15T00:46:11.757Z,3.47
2022-09-15T00:49:02.231Z,3.47
2022-09-15T00:52:11.550Z,3.50
2022-09-15T00:54:59.869Z,3.22
2022-09-15T00:57:29.608Z,3.60
2022-09-15T00:59:59.730Z,3.72
2022-09-15T01:02:31.748Z,3.13
2022-09-15T01:05:01.893Z,3.50
2022-09-15T01:07:41.830Z,4.15
2022-09-15T01:10:15.237Z,3.97
2022-09-15T01:12:43.747Z,3.55
2022-09-15T01:15:12.054Z,3.63
2022-09-15T01:17:48.933Z,3.60
2022-09-15T01:20:40.777Z,3.25
2022-09-15T01:23:52.111Z,3.50
2022-09-15T01:26:31.717Z,3.40
2022-09-15T01:29:37.546Z,3.42
2022-09-15T01:32:39.086Z,3.50
2022-09-15T01:35:21.918Z,3.60
2022-09-15T01:38:08.295Z,3.60
2022-09-15T01:40:57.125Z,3.30
2022-09-15T01:43:27.167Z,3.70
2022-09-15T01:45:54.613Z,3.58
2022-09-15T01:48:25.529Z,3.78
2022-09-15T01:50:57.464Z,3.50
2022-09-15T01:53:26.434Z,3.05
2022-09-15T01:56:08.527Z,3.40
2022-09-15T01:58:38.740Z,3.35
2022-09-15T02:01:09.013Z,3.50
2022-09-15T02:03:51.919Z,3.10
2022-09-15T02:06:37.310Z,3.42
2022-09-15T02:09:20.978Z,3.50
2022-09-15T02:12:03.344Z,3.50
2022-09-15T02:14:35.272Z,3.47
2022-09-15T02:17:02.922Z,3.10
2022-09-15T02:19:36.247Z,3.60
2022-09-15T02:22:12.221Z,3.30
2022-09-15T02:24:48.482Z,3.35
2022-09-15T02:27:22.109Z,3.55
2022-09-15T02:29:53.842Z,3.47
2022-09-15T02:32:25.194Z,3.60
2022-09-15T02:34:55.454Z,3.28
2022-09-15T02:37:25.020Z,3.20
2022-09-15T02:39:58.090Z,3.42
2022-09-15T02:42:31.480Z,3.33
2022-09-15T02:45:00.663Z,2.95
2022-09-15T02:47:28.806Z,3.28
2022-09-15T02:49:56.804Z,3.30
2022-09-15T02:52:24.373Z,3.30
2022-09-15T02:54:51.897Z,3.50
2022-09-15T02:57:19.822Z,3.55
2022-09-15T03:00:06.887Z,3.28
2022-09-15T03:02:35.749Z,3.15
2022-09-15T03:05:03.530Z,2.92
2022-09-15T03:07:31.937Z,2.92
2022-09-15T03:10:00.734Z,3.40
2022-09-15T03:12:28.089Z,3.28
2022-09-15T03:14:55.372Z,3.20
2022-09-15T03:17:22.876Z,3.28
2022-09-15T03:19:50.694Z,3.40
2022-09-15T03:22:18.070Z,3.22
2022-09-15T03:24:45.689Z,3.42
2022-09-15T03:27:13.019Z,3.03
2022-09-15T03:29:40.504Z,3.20
2022-09-15T03:32:08.113Z,3.25
2022-09-15T03:34:36.317Z,2.90
2022-09-15T03:37:04.056Z,3.10
2022-09-15T03:39:31.706Z,2.85
2022-09-15T03:41:59.824Z,3.00
2022-09-15T03:44:27.444Z,3.13
2022-09-15T03:46:54.943Z,2.83
2022-09-15T03:49:22.329Z,3.03
2022-09-15T03:51:49.964Z,2.97
2022-09-15T03:54:17.928Z,3.10
2022-09-15T03:56:48.910Z,2.75
2022-09-15T03:59:18.840Z,2.78
2022-09-15T04:01:48.862Z,2.90
2022-09-15T04:04:16.389Z,2.58
2022-09-15T04:06:44.703Z,2.65
2022-09-15T04:09:12.314Z,3.08
2022-09-15T04:11:40.858Z,2.80
2022-09-15T04:14:08.481Z,2.88
2022-09-15T04:16:36.470Z,2.90
2022-09-15T04:19:03.968Z,2.40
2022-09-15T04:21:32.022Z,2.72
2022-09-15T04:23:59.654Z,2.83
2022-09-15T04:26:33.397Z,2.70
2022-09-15T04:29:04.475Z,2.70
2022-09-15T04:31:33.678Z,2.65
2022-09-15T04:34:01.080Z,3.03
2022-09-15T04:36:29.532Z,2.60
2022-09-15T04:38:58.089Z,2.60
2022-09-15T04:41:26.709Z,2.30
2022-09-15T04:43:54.282Z,2.78
2022-09-15T04:46:21.860Z,2.38
2022-09-15T04:48:49.534Z,2.65
2022-09-15T04:51:20.301Z,2.60
2022-09-15T04:53:48.388Z,2.60
2022-09-15T04:56:17.818Z,2.97
2022-09-15T04:58:48.241Z,2.80
2022-09-15T05:01:22.456Z,2.40
2022-09-15T05:03:50.512Z,2.80
2022-09-15T05:06:20.098Z,2.90
2022-09-15T05:08:49.036Z,2.85
2022-09-15T05:11:17.256Z,3.25
2022-09-15T05:13:44.981Z,2.72
2022-09-15T05:16:15.330Z,3.13
2022-09-15T05:18:45.194Z,2.83
2022-09-15T05:21:14.263Z,2.90
2022-09-15T05:23:42.262Z,3.30
2022-09-15T05:26:13.897Z,3.30
2022-09-15T05:28:41.701Z,3.33
2022-09-15T05:31:26.802Z,3.00
2022-09-15T05:33:54.512Z,2.88
2022-09-15T05:36:25.281Z,2.92
2022-09-15T05:38:55.592Z,3.13
2022-09-15T05:41:24.327Z,3.25
2022-09-15T05:43:53.478Z,3.20
2022-09-15T05:46:21.183Z,3.97
2022-09-15T05:48:48.763Z,3.00
2022-09-15T05:51:16.161Z,3.20
2022-09-15T05:53:43.546Z,3.10
2022-09-15T05:56:14.254Z,3.15
2022-09-15T05:58:42.994Z,2.78
2022-09-15T06:01:16.123Z,2.50
2022-09-15T06:03:44.294Z,2.63
2022-09-15T06:06:12.201Z,2.65
2022-09-15T06:08:50.760Z,2.95
2022-09-15T06:11:22.637Z,2.70
2022-09-15T06:13:50.446Z,2.80
2022-09-15T06:16:20.930Z,3.20
2022-09-15T06:18:50.483Z,2.97
2022-09-15T06:21:20.542Z,2.97
2022-09-15T06:23:58.870Z,2.75
2022-09-15T06:26:27.620Z,2.33
2022-09-15T06:29:00.779Z,2.42
2022-09-15T06:31:31.509Z,2.42
2022-09-15T06:33:59.414Z,2.38
2022-09-15T06:36:29.204Z,2.15
2022-09-15T06:38:57.581Z,2.15
2022-09-15T06:41:25.718Z,2.22
2022-09-15T06:43:53.326Z,2.50
2022-09-15T06:46:23.844Z,2.10
2022-09-15T06:48:51.942Z,2.30
2022-09-15T06:51:22.289Z,2.10
2022-09-15T06:53:50.110Z,2.17
2022-09-15T06:56:20.681Z,2.30
2022-09-15T06:58:51.398Z,1.90
2022-09-15T07:01:31.253Z,2.20
2022-09-15T07:04:00.880Z,1.85
2022-09-15T07:06:31.385Z,1.92
2022-09-15T07:08:59.281Z,1.60
2022-09-15T07:11:26.699Z,2.10
2022-09-15T07:13:54.378Z,1.77
2022-09-15T07:16:23.000Z,1.55
2022-09-15T07:18:50.529Z,1.63
2022-09-15T07:21:20.441Z,1.77
2022-09-15T07:23:48.892Z,1.63
2022-09-15T07:26:20.101Z,1.70
2022-09-15T07:28:50.362Z,1.70
2022-09-15T07:31:21.396Z,1.50
2022-09-15T07:33:49.578Z,1.63
2022-09-15T07:36:17.417Z,1.45
2022-09-15T07:38:47.798Z,1.55
2022-09-15T07:41:18.776Z,1.60
2022-09-15T07:43:52.364Z,1.70
2022-09-15T07:46:22.206Z,1.40
2022-09-15T07:48:51.859Z,1.60
2022-09-15T07:51:19.932Z,1.60
2022-09-15T07:53:48.873Z,1.60
2022-09-15T07:56:18.571Z,1.40
2022-09-15T07:58:46.986Z,1.30
2022-09-15T08:01:16.133Z,1.35
2022-09-15T08:03:46.408Z,1.38
2022-09-15T08:06:14.827Z,1.50
2022-09-15T08:08:45.770Z,1.40
2022-09-15T08:11:19.609Z,1.35
2022-09-15T08:13:49.627Z,1.60
2022-09-15T08:16:22.741Z,1.20
2022-09-15T08:18:53.493Z,1.13
2022-09-15T08:21:21.915Z,1.45
2022-09-15T08:23:55.952Z,1.20
2022-09-15T08:26:24.654Z,1.17
2022-09-15T08:28:52.112Z,1.10
2022-09-15T08:31:20.155Z,1.15
2022-09-15T08:33:52.594Z,1.48
2022-09-15T08:36:20.349Z,1.38
2022-09-15T08:38:48.353Z,1.38
2022-09-15T08:41:21.599Z,1.35
2022-09-15T08:44:04.844Z,1.38
2022-09-15T08:46:44.383Z,1.38
2022-09-15T08:49:50.038Z,1.25
2022-09-15T08:52:26.813Z,1.20
2022-09-15T08:54:58.014Z,1.38
2022-09-15T08:57:26.092Z,1.40
2022-09-15T08:59:55.201Z,1.20
2022-09-15T09:02:46.855Z,1.20
2022-09-15T09:05:43.202Z,1.38
2022-09-15T09:08:29.431Z,1.25
2022-09-15T09:11:26.033Z,1.50
2022-09-15T09:14:05.977Z,1.17
2022-09-15T09:17:08.846Z,1.20
2022-09-15T09:19:57.564Z,1.50
2022-09-15T09:22:30.347Z,1.50
2022-09-15T09:25:00.118Z,1.50
2022-09-15T09:27:33.806Z,1.30
2022-09-15T09:30:14.577Z,1.50
2022-09-15T09:32:47.542Z,1.52
2022-09-15T09:35:32.346Z,1.50
2022-09-15T09:38:02.418Z,1.30
2022-09-15T09:40:31.594Z,1.35
2022-09-15T09:43:00.968Z,1.27
2022-09-15T09:45:28.549Z,1.40
2022-09-15T09:48:04.331Z,1.50
2022-09-15T09:50:43.130Z,1.42
2022-09-15T09:53:29.029Z,1.30
2022-09-15T09:56:15.938Z,1.58
2022-09-15T09:58:45.035Z,1.40
2022-09-15T10:01:19.170Z,1.60
2022-09-15T10:03:47.226Z,1.80
2022-09-15T10:06:19.316Z,1.73
2022-09-15T10:09:04.219Z,1.70
2022-09-15T10:11:52.759Z,1.75
2022-09-15T10:14:33.244Z,1.70
2022-09-15T10:17:02.798Z,1.58
2022-09-15T10:19:33.158Z,1.75
2022-09-15T10:22:02.042Z,1.45
2022-09-15T10:24:35.602Z,2.10
2022-09-15T10:27:14.909Z,1.80
2022-09-15T10:29:42.710Z,2.00
2022-09-15T10:32:36.157Z,2.05
2022-09-15T10:35:14.092Z,1.88
2022-09-15T10:38:05.097Z,1.92
2022-09-15T10:40:51.761Z,1.83
2022-09-15T10:43:36.002Z,1.70
2022-09-15T10:46:14.431Z,1.90
2022-09-15T10:49:06.902Z,1.80
2022-09-15T10:52:02.195Z,2.00
2022-09-15T10:54:41.916Z,2.00
2022-09-15T10:57:28.355Z,1.95
2022-09-15T11:00:17.132Z,1.92
2022-09-15T11:03:11.752Z,1.70
2022-09-15T11:06:16.236Z,2.00
2022-09-15T11:08:54.460Z,2.00
2022-09-15T11:11:32.133Z,1.70
2022-09-15T11:14:27.101Z,1.67
2022-09-15T11:17:33.754Z,1.88
2022-09-15T11:20:23.061Z,1.80
2022-09-15T11:23:04.237Z,1.90
2022-09-15T11:25:36.505Z,1.90
2022-09-15T11:28:10.029Z,1.83
2022-09-15T11:30:47.956Z,1.73
2022-09-15T11:33:31.137Z,1.70
2022-09-15T11:36:14.390Z,1.90
2022-09-15T11:38:52.881Z,1.77
2022-09-15T11:41:31.085Z,1.80
2022-09-15T11:44:34.035Z,2.63
2022-09-15T11:47:15.598Z,1.70
2022-09-15T11:49:52.111Z,1.90
2022-09-15T11:52:25.958Z,1.70
2022-09-15T11:55:15.851Z,1.83
2022-09-15T11:58:01.293Z,1.92
2022-09-15T12:00:28.865Z,1.90
2022-09-15T12:03:18.530Z,1.75
2022-09-15T12:06:17.329Z,1.73
2022-09-15T12:08:53.454Z,1.65
2022-09-15T12:11:24.542Z,1.77
2022-09-15T12:13:53.731Z,1.70
2022-09-15T12:16:22.027Z,1.60
2022-09-15T12:18:58.457Z,1.48
2022-09-15T12:22:01.588Z,1.60
2022-09-15T12:24:43.786Z,1.73
2022-09-15T12:27:19.502Z,1.50
2022-09-15T12:29:52.394Z,1.60
2022-09-15T12:32:29.911Z,1.70
2022-09-15T12:34:57.292Z,1.83
2022-09-15T12:37:29.897Z,1.90
2022-09-15T12:39:58.262Z,1.73
2022-09-15T12:42:31.154Z,1.42
2022-09-15T12:45:03.170Z,1.80
2022-09-15T12:47:49.771Z,2.17
2022-09-15T12:50:25.360Z,2.00
2022-09-15T12:53:04.091Z,1.70
2022-09-15T12:55:37.669Z,1.90
2022-09-15T12:58:18.541Z,1.73
2022-09-15T13:01:13.878Z,1.98
2022-09-15T13:06:12.913Z,1.92
2022-09-15T13:08:51.124Z,1.90
2022-09-15T13:11:50.128Z,2.33
2022-09-15T13:14:32.376Z,2.70
2022-09-15T13:17:07.430Z,2.50
2022-09-15T13:19:41.346Z,2.90
2022-09-15T13:22:11.833Z,2.58
2022-09-15T13:24:46.032Z,3.10
2022-09-15T13:27:21.460Z,2.87
2022-09-15T13:29:50.728Z,3.58
2022-09-15T13:32:50.496Z,3.08
2022-09-15T13:35:28.025Z,3.42
2022-09-15T13:38:52.457Z,3.78
2022-09-15T13:41:55.935Z,3.85
2022-09-15T13:45:04.898Z,3.72
2022-09-15T13:47:50.955Z,3.65
2022-09-15T13:50:25.635Z,3.78
2022-09-15T13:53:15.143Z,4.15
2022-09-15T13:55:43.918Z,3.88
2022-09-15T14:01:07.437Z,4.55
2022-09-15T14:03:52.691Z,4.70
2022-09-15T14:06:26.022Z,4.65
2022-09-15T14:08:57.124Z,4.82
2022-09-15T14:11:33.436Z,4.63
2022-09-15T14:14:01.397Z,5.05
2022-09-15T14:16:35.020Z,4.55
2022-09-15T14:19:24.264Z,5.05
2022-09-15T14:21:56.274Z,4.93
2022-09-15T14:24:29.988Z,5.05
2022-09-15T14:27:07.474Z,4.90
2022-09-15T14:29:40.656Z,4.80
2022-09-15T14:32:14.022Z,5.03
2022-09-15T14:34:43.241Z,5.10
2022-09-15T14:37:20.954Z,4.65
2022-09-15T14:40:01.614Z,5.03
2022-09-15T14:42:41.104Z,5.05
2022-09-15T14:48:02.895Z,5.25
2022-09-15T14:50:33.286Z,5.00
2022-09-15T14:53:03.900Z,5.30
2022-09-15T14:55:58.066Z,5.07
2022-09-15T14:58:34.524Z,4.85
2022-09-15T15:01:08.824Z,4.93
2022-09-15T15:03:42.208Z,4.80
2022-09-15T15:06:34.935Z,5.00
2022-09-15T15:09:25.189Z,5.10
2022-09-15T15:12:05.006Z,4.60
2022-09-15T15:14:35.424Z,5.10
2022-09-15T15:17:08.750Z,4.43
2022-09-15T15:19:41.371Z,4.47
2022-09-15T15:22:12.034Z,4.05
2022-09-15T15:24:49.195Z,4.47
2022-09-15T15:27:31.879Z,4.55
2022-09-15T15:30:26.709Z,4.53
2022-09-15T15:32:59.343Z,4.70
2022-09-15T15:35:27.802Z,4.60
2022-09-15T15:38:05.139Z,4.47
2022-09-15T15:40:33.604Z,4.32
2022-09-15T15:43:03.309Z,4.10
2022-09-15T15:45:34.498Z,4.55
2022-09-15T15:48:04.258Z,4.22
2022-09-15T15:50:34.693Z,4.30
2022-09-15T15:53:02.765Z,4.20
2022-09-15T15:55:41.782Z,3.92
2022-09-15T15:58:11.000Z,4.65
2022-09-15T16:00:53.191Z,4.30
2022-09-15T16:03:21.603Z,4.43
2022-09-15T16:05:52.988Z,4.97
2022-09-15T16:08:26.293Z,5.30
2022-09-15T16:10:55.280Z,4.97
2022-09-15T16:13:24.649Z,5.90
2022-09-15T16:16:00.117Z,4.90
2022-09-15T16:18:29.243Z,5.85
2022-09-15T16:20:59.162Z,4.70
2022-09-15T16:23:26.762Z,5.07
2022-09-15T16:26:05.764Z,5.18
2022-09-15T16:28:33.447Z,5.55
2022-09-15T16:31:03.230Z,5.30
2022-09-15T16:33:34.605Z,5.75
2022-09-15T16:36:08.249Z,5.57
2022-09-15T16:38:36.255Z,5.05
2022-09-15T16:41:10.728Z,5.28
2022-09-15T16:46:06.755Z,4.80
2022-09-15T16:48:34.324Z,5.10
2022-09-15T16:51:20.881Z,5.25
2022-09-15T16:53:52.038Z,5.38
2022-09-15T16:56:19.654Z,4.95
2022-09-15T16:58:47.127Z,4.70
2022-09-15T17:01:27.421Z,4.93
2022-09-15T17:03:57.889Z,5.30
2022-09-15T17:06:25.486Z,4.80
2022-09-15T17:08:53.036Z,5.93
2022-09-15T17:11:25.467Z,4.38
2022-09-15T17:13:53.477Z,4.55
2022-09-15T17:16:21.009Z,4.20
2022-09-15T17:18:50.423Z,4.15
2022-09-15T17:21:19.746Z,4.53
2022-09-15T17:23:49.666Z,4.28
2022-09-15T17:26:31.099Z,4.05
2022-09-15T17:29:01.662Z,4.47
2022-09-15T17:31:29.903Z,3.67
2022-09-15T17:33:57.530Z,3.83
2022-09-15T17:36:25.201Z,4.28
2022-09-15T17:38:53.022Z,4.00
2022-09-15T17:41:22.804Z,4.05
2022-09-15T17:43:52.353Z,4.13
2022-09-15T17:46:20.656Z,3.55
2022-09-15T17:48:48.592Z,3.60
2022-09-15T17:51:19.843Z,3.53
2022-09-15T17:53:48.342Z,3.63
2022-09-15T17:56:16.290Z,3.42
2022-09-15T17:58:44.971Z,3.53
2022-09-15T18:01:14.423Z,3.42
2022-09-15T18:03:44.620Z,3.40
2022-09-15T18:06:12.344Z,3.70
2022-09-15T18:08:40.320Z,3.80
2022-09-15T18:11:13.156Z,3.30
2022-09-15T18:13:43.949Z,3.63
2022-09-15T18:16:14.509Z,3.35
2022-09-15T18:18:43.680Z,3.80
2022-09-15T18:21:25.351Z,3.58
2022-09-15T18:23:54.488Z,3.47
2022-09-15T18:26:26.195Z,3.00
2022-09-15T18:28:55.930Z,2.95
2022-09-15T18:31:23.852Z,3.40
2022-09-15T18:33:51.719Z,3.20
2022-09-15T18:36:20.870Z,3.40
2022-09-15T18:38:48.725Z,3.20
2022-09-15T18:41:17.008Z,3.10
2022-09-15T18:43:49.145Z,3.40
2022-09-15T18:46:19.343Z,3.20
2022-09-15T18:48:47.207Z,3.30
2022-09-15T18:51:23.808Z,3.00
2022-09-15T18:53:54.375Z,3.30
2022-09-15T18:56:22.101Z,3.55
2022-09-15T18:58:53.958Z,3.17
2022-09-15T19:01:23.344Z,3.30
2022-09-15T19:03:51.644Z,3.17
2022-09-15T19:06:23.600Z,3.33
2022-09-15T19:08:54.314Z,2.92
2022-09-15T19:11:23.094Z,2.90
2022-09-15T19:13:54.139Z,3.50
2022-09-15T19:16:34.555Z,3.97
2022-09-15T19:19:10.702Z,3.40
2022-09-15T19:21:43.144Z,3.47
2022-09-15T19:24:12.794Z,3.47
2022-09-15T19:26:44.012Z,3.60
2022-09-15T19:29:14.409Z,3.97
2022-09-15T19:31:42.356Z,3.33
2022-09-15T19:34:11.845Z,3.50
2022-09-15T19:36:39.823Z,3.13
2022-09-15T19:39:10.989Z,3.35
2022-09-15T19:41:38.788Z,3.40
2022-09-15T19:44:10.558Z,3.55
2022-09-15T19:46:41.708Z,2.83
2022-09-15T19:49:11.271Z,3.38
2022-09-15T19:51:38.972Z,3.30
2022-09-15T19:54:08.718Z,3.20
2022-09-15T19:56:36.437Z,3.28
2022-09-15T19:59:06.435Z,3.10
2022-09-15T20:01:35.422Z,3.25
2022-09-15T20:04:04.249Z,3.33
2022-09-15T20:06:32.936Z,3.08
2022-09-15T20:09:01.261Z,3.22
2022-09-15T20:11:30.016Z,3.42
2022-09-15T20:14:06.701Z,3.20
2022-09-15T20:16:34.644Z,2.88
2022-09-15T20:19:04.011Z,3.50
2022-09-15T20:21:50.759Z,3.75
2022-09-15T20:24:21.404Z,2.90
2022-09-15T20:26:49.287Z,3.00
2022-09-15T20:29:17.152Z,2.92
2022-09-15T20:31:45.232Z,3.38
2022-09-15T20:34:12.668Z,3.38
2022-09-15T20:36:40.502Z,3.05
2022-09-15T20:39:13.108Z,3.17
2022-09-15T20:41:45.084Z,3.15
2022-09-15T20:44:14.909Z,3.50
2022-09-15T20:46:42.350Z,3.20
2022-09-15T20:49:10.730Z,3.33
2022-09-15T20:51:38.993Z,2.60
2022-09-15T20:54:06.484Z,3.40
2022-09-15T20:56:35.427Z,3.65
2022-09-15T20:59:04.611Z,3.33
2022-09-15T21:01:35.967Z,2.97
2022-09-15T21:04:08.638Z,3.00
2022-09-15T21:06:37.241Z,2.95
2022-09-15T21:09:05.568Z,2.78
2022-09-15T21:11:33.737Z,3.25
2022-09-15T21:14:01.784Z,3.22
2022-09-15T21:16:29.487Z,3.20
2022-09-15T21:18:58.572Z,2.97
2022-09-15T21:21:29.862Z,3.05
2022-09-15T21:24:03.942Z,3.35
2022-09-15T21:27:01.436Z,3.10
2022-09-15T21:29:29.183Z,3.22
2022-09-15T21:31:57.763Z,2.90
2022-09-15T21:34:26.290Z,2.92
2022-09-15T21:36:54.216Z,2.92
2022-09-15T21:39:21.908Z,2.78
2022-09-15T21:41:50.038Z,3.40
2022-09-15T21:44:17.357Z,2.92
2022-09-15T21:46:46.945Z,2.92
2022-09-15T21:49:14.973Z,2.60
2022-09-15T21:51:42.315Z,2.90
2022-09-15T21:54:10.417Z,3.17
2022-09-15T21:56:37.818Z,2.90
2022-09-15T21:59:05.504Z,2.55
2022-09-15T22:01:33.347Z,2.90
2022-09-15T22:04:06.527Z,3.05
2022-09-15T22:06:36.584Z,3.20
2022-09-15T22:09:10.003Z,2.60
2022-09-15T22:11:38.016Z,3.55
2022-09-15T22:14:09.597Z,3.13
2022-09-15T22:16:38.825Z,3.30
2022-09-15T22:19:08.082Z,3.17
2022-09-15T22:21:36.972Z,3.00
2022-09-15T22:24:06.821Z,3.20
2022-09-15T22:26:37.320Z,3.00
2022-09-15T22:29:05.808Z,2.70
2022-09-15T22:31:33.877Z,3.13
2022-09-15T22:34:02.011Z,2.83
2022-09-15T22:36:30.608Z,3.00
2022-09-15T22:39:05.840Z,3.05
2022-09-15T22:41:39.279Z,2.67
2022-09-15T22:44:18.834Z,2.85
2022-09-15T22:46:46.895Z,3.05
2022-09-15T22:49:14.429Z,2.85
2022-09-15T22:51:41.837Z,2.83
2022-09-15T22:54:09.422Z,2.90
2022-09-15T22:56:36.739Z,2.90
2022-09-15T22:59:04.144Z,2.97
2022-09-15T23:01:31.999Z,2.78
2022-09-15T23:04:01.615Z,2.90
2022-09-15T23:06:32.203Z,3.05
2022-09-15T23:09:04.422Z,2.75
2022-09-15T23:11:33.247Z,2.90
2022-09-15T23:14:01.776Z,2.92
2022-09-15T23:16:30.555Z,3.20
2022-09-15T23:18:59.261Z,2.63
2022-09-15T23:21:27.982Z,2.95
2022-09-15T23:23:55.713Z,2.75
2022-09-15T23:26:24.495Z,2.58
2022-09-15T23:28:53.263Z,3.38
2022-09-15T23:31:21.299Z,2.78
2022-09-15T23:33:48.909Z,2.50
2022-09-15T23:36:21.922Z,2.60
2022-09-15T23:38:49.730Z,2.80
2022-09-15T23:41:18.648Z,2.90
2022-09-15T23:43:46.664Z,2.60
2022-09-15T23:46:15.030Z,2.40
2022-09-15T23:48:42.944Z,3.22
2022-09-15T23:51:10.273Z,2.80
2022-09-15T23:53:37.889Z,2.83
2022-09-15T23:56:05.687Z,2.90
2022-09-15T23:58:33.149Z,3.15
